sensor_id;sensor_type;location;lat;lon;timestamp;P1;durP1;ratioP1;P2;durP2;ratioP2
32633;SDS011;19043;51.012;5.648;2023-07-02T00:01:40;11.90;;;6.82;;
32633;SDS011;19043;51.012;5.648;2023-07-02T00:04:05;12.13;;;7.63;;
32633;SDS011;19043;51.012;5.648;2023-07-02T00:06:34;21.85;;;8.13;;
32633;SDS011;19043;51.012;5.648;2023-07-02T00:09:05;14.85;;;7.93;;
32633;SDS011;19043;51.012;5.648;2023-07-02T00:11:30;11.88;;;7.72;;
32633;SDS011;19043;51.012;5.648;2023-07-02T00:13:55;17.13;;;7.57;;
32633;SDS011;19043;51.012;5.648;2023-07-02T00:16:21;10.43;;;7.43;;
32633;SDS011;19043;51.012;5.648;2023-07-02T00:18:46;22.67;;;8.83;;
32633;SDS011;19043;51.012;5.648;2023-07-02T00:21:18;16.02;;;9.07;;
32633;SDS011;19043;51.012;5.648;2023-07-02T00:23:44;17.45;;;9.30;;
32633;SDS011;19043;51.012;5.648;2023-07-02T00:26:09;18.05;;;9.95;;
32633;SDS011;19043;51.012;5.648;2023-07-02T00:28:34;18.75;;;8.80;;
32633;SDS011;19043;51.012;5.648;2023-07-02T00:30:59;27.20;;;10.20;;
32633;SDS011;19043;51.012;5.648;2023-07-02T00:33:26;19.30;;;9.25;;
32633;SDS011;19043;51.012;5.648;2023-07-02T00:35:51;16.48;;;9.32;;
32633;SDS011;19043;51.012;5.648;2023-07-02T00:38:16;18.37;;;11.00;;
32633;SDS011;19043;51.012;5.648;2023-07-02T00:40:41;17.13;;;9.80;;
32633;SDS011;19043;51.012;5.648;2023-07-02T00:43:07;18.30;;;9.02;;
32633;SDS011;19043;51.012;5.648;2023-07-02T00:45:40;17.65;;;10.10;;
32633;SDS011;19043;51.012;5.648;2023-07-02T00:48:06;18.17;;;11.60;;
32633;SDS011;19043;51.012;5.648;2023-07-02T00:50:31;17.17;;;10.73;;
32633;SDS011;19043;51.012;5.648;2023-07-02T00:52:57;18.65;;;10.05;;
32633;SDS011;19043;51.012;5.648;2023-07-02T00:55:22;16.50;;;10.70;;
32633;SDS011;19043;51.012;5.648;2023-07-02T00:57:47;19.70;;;11.07;;
32633;SDS011;19043;51.012;5.648;2023-07-02T01:00:13;18.00;;;10.07;;
32633;SDS011;19043;51.012;5.648;2023-07-02T01:02:38;16.65;;;11.60;;
32633;SDS011;19043;51.012;5.648;2023-07-02T01:05:08;17.08;;;11.13;;
32633;SDS011;19043;51.012;5.648;2023-07-02T01:07:34;18.33;;;11.02;;
32633;SDS011;19043;51.012;5.648;2023-07-02T01:09:59;22.47;;;11.53;;
32633;SDS011;19043;51.012;5.648;2023-07-02T01:12:24;24.40;;;12.27;;
32633;SDS011;19043;51.012;5.648;2023-07-02T01:14:53;20.52;;;12.77;;
32633;SDS011;19043;51.012;5.648;2023-07-02T01:17:20;25.67;;;12.73;;
32633;SDS011;19043;51.012;5.648;2023-07-02T01:22:10;17.55;;;12.05;;
32633;SDS011;19043;51.012;5.648;2023-07-02T01:24:36;21.33;;;12.85;;
32633;SDS011;19043;51.012;5.648;2023-07-02T01:27:03;18.02;;;12.60;;
32633;SDS011;19043;51.012;5.648;2023-07-02T01:29:29;23.40;;;13.65;;
32633;SDS011;19043;51.012;5.648;2023-07-02T01:31:55;21.58;;;11.55;;
32633;SDS011;19043;51.012;5.648;2023-07-02T01:34:21;28.77;;;15.05;;
32633;SDS011;19043;51.012;5.648;2023-07-02T01:36:46;23.98;;;13.60;;
32633;SDS011;19043;51.012;5.648;2023-07-02T01:39:12;27.85;;;13.73;;
32633;SDS011;19043;51.012;5.648;2023-07-02T01:41:41;19.75;;;13.25;;
32633;SDS011;19043;51.012;5.648;2023-07-02T01:44:06;23.38;;;14.10;;
32633;SDS011;19043;51.012;5.648;2023-07-02T01:46:32;19.87;;;14.53;;
32633;SDS011;19043;51.012;5.648;2023-07-02T01:48:57;25.23;;;15.03;;
32633;SDS011;19043;51.012;5.648;2023-07-02T01:51:22;27.85;;;14.70;;
32633;SDS011;19043;51.012;5.648;2023-07-02T01:53:47;18.97;;;14.70;;
32633;SDS011;19043;51.012;5.648;2023-07-02T01:56:13;25.42;;;14.27;;
32633;SDS011;19043;51.012;5.648;2023-07-02T01:58:38;22.80;;;14.00;;
32633;SDS011;19043;51.012;5.648;2023-07-02T02:01:03;30.60;;;14.48;;
32633;SDS011;19043;51.012;5.648;2023-07-02T02:03:28;32.23;;;16.27;;
32633;SDS011;19043;51.012;5.648;2023-07-02T02:05:54;20.97;;;14.80;;
32633;SDS011;19043;51.012;5.648;2023-07-02T02:08:19;31.20;;;15.48;;
32633;SDS011;19043;51.012;5.648;2023-07-02T02:10:44;25.55;;;16.25;;
32633;SDS011;19043;51.012;5.648;2023-07-02T02:13:09;24.40;;;16.15;;
32633;SDS011;19043;51.012;5.648;2023-07-02T02:15:34;26.15;;;16.00;;
32633;SDS011;19043;51.012;5.648;2023-07-02T02:18:00;26.42;;;15.25;;
32633;SDS011;19043;51.012;5.648;2023-07-02T02:20:25;27.83;;;15.70;;
32633;SDS011;19043;51.012;5.648;2023-07-02T02:22:50;25.92;;;15.82;;
32633;SDS011;19043;51.012;5.648;2023-07-02T02:25:15;25.55;;;15.13;;
32633;SDS011;19043;51.012;5.648;2023-07-02T02:27:41;27.23;;;16.38;;
32633;SDS011;19043;51.012;5.648;2023-07-02T02:30:08;33.67;;;16.92;;
32633;SDS011;19043;51.012;5.648;2023-07-02T02:32:33;23.13;;;16.10;;
32633;SDS011;19043;51.012;5.648;2023-07-02T02:34:58;31.17;;;16.23;;
32633;SDS011;19043;51.012;5.648;2023-07-02T02:37:24;37.57;;;18.43;;
32633;SDS011;19043;51.012;5.648;2023-07-02T02:39:49;29.48;;;17.13;;
32633;SDS011;19043;51.012;5.648;2023-07-02T02:42:15;29.73;;;18.08;;
32633;SDS011;19043;51.012;5.648;2023-07-02T02:44:40;27.27;;;17.97;;
32633;SDS011;19043;51.012;5.648;2023-07-02T02:47:05;25.13;;;17.13;;
32633;SDS011;19043;51.012;5.648;2023-07-02T02:49:31;33.95;;;18.42;;
32633;SDS011;19043;51.012;5.648;2023-07-02T02:51:56;29.23;;;18.33;;
32633;SDS011;19043;51.012;5.648;2023-07-02T02:54:21;28.52;;;16.85;;
32633;SDS011;19043;51.012;5.648;2023-07-02T02:56:47;44.33;;;19.30;;
32633;SDS011;19043;51.012;5.648;2023-07-02T02:59:12;36.15;;;18.08;;
32633;SDS011;19043;51.012;5.648;2023-07-02T03:01:37;26.88;;;18.52;;
32633;SDS011;19043;51.012;5.648;2023-07-02T03:04:03;24.88;;;18.65;;
32633;SDS011;19043;51.012;5.648;2023-07-02T03:06:29;32.47;;;17.55;;
32633;SDS011;19043;51.012;5.648;2023-07-02T03:08:55;27.52;;;18.20;;
32633;SDS011;19043;51.012;5.648;2023-07-02T03:11:20;30.80;;;17.40;;
32633;SDS011;19043;51.012;5.648;2023-07-02T03:13:45;25.45;;;17.73;;
32633;SDS011;19043;51.012;5.648;2023-07-02T03:16:11;32.60;;;20.23;;
32633;SDS011;19043;51.012;5.648;2023-07-02T03:18:36;23.05;;;16.77;;
32633;SDS011;19043;51.012;5.648;2023-07-02T03:21:01;25.30;;;17.92;;
32633;SDS011;19043;51.012;5.648;2023-07-02T03:23:26;36.13;;;19.98;;
32633;SDS011;19043;51.012;5.648;2023-07-02T03:25:52;34.47;;;19.20;;
32633;SDS011;19043;51.012;5.648;2023-07-02T03:28:17;26.83;;;18.73;;
32633;SDS011;19043;51.012;5.648;2023-07-02T03:30:42;29.88;;;18.77;;
32633;SDS011;19043;51.012;5.648;2023-07-02T03:33:08;31.27;;;19.88;;
32633;SDS011;19043;51.012;5.648;2023-07-02T03:35:33;29.75;;;20.55;;
32633;SDS011;19043;51.012;5.648;2023-07-02T03:37:59;31.17;;;20.25;;
32633;SDS011;19043;51.012;5.648;2023-07-02T03:40:24;30.33;;;19.80;;
32633;SDS011;19043;51.012;5.648;2023-07-02T03:42:49;30.20;;;20.20;;
32633;SDS011;19043;51.012;5.648;2023-07-02T03:45:14;34.90;;;18.83;;
32633;SDS011;19043;51.012;5.648;2023-07-02T03:47:40;34.40;;;19.38;;
32633;SDS011;19043;51.012;5.648;2023-07-02T03:50:05;28.50;;;18.93;;
32633;SDS011;19043;51.012;5.648;2023-07-02T03:52:30;39.42;;;20.13;;
32633;SDS011;19043;51.012;5.648;2023-07-02T03:54:55;36.60;;;19.37;;
32633;SDS011;19043;51.012;5.648;2023-07-02T03:57:21;32.15;;;20.27;;
32633;SDS011;19043;51.012;5.648;2023-07-02T03:59:46;28.47;;;20.07;;
32633;SDS011;19043;51.012;5.648;2023-07-02T04:02:11;39.40;;;20.98;;
32633;SDS011;19043;51.012;5.648;2023-07-02T04:04:36;31.50;;;20.57;;
32633;SDS011;19043;51.012;5.648;2023-07-02T04:07:02;29.50;;;19.63;;
32633;SDS011;19043;51.012;5.648;2023-07-02T04:09:27;32.90;;;20.38;;
32633;SDS011;19043;51.012;5.648;2023-07-02T04:11:53;28.67;;;19.40;;
32633;SDS011;19043;51.012;5.648;2023-07-02T04:14:18;40.97;;;21.53;;
32633;SDS011;19043;51.012;5.648;2023-07-02T04:16:44;35.60;;;21.80;;
32633;SDS011;19043;51.012;5.648;2023-07-02T04:19:09;31.35;;;21.55;;
32633;SDS011;19043;51.012;5.648;2023-07-02T04:21:35;41.10;;;21.02;;
32633;SDS011;19043;51.012;5.648;2023-07-02T04:24:00;35.78;;;20.90;;
32633;SDS011;19043;51.012;5.648;2023-07-02T04:26:25;41.03;;;21.65;;
32633;SDS011;19043;51.012;5.648;2023-07-02T04:28:51;34.80;;;20.98;;
32633;SDS011;19043;51.012;5.648;2023-07-02T04:31:17;36.50;;;20.08;;
32633;SDS011;19043;51.012;5.648;2023-07-02T04:33:42;37.27;;;21.67;;
32633;SDS011;19043;51.012;5.648;2023-07-02T04:36:07;37.10;;;22.75;;
32633;SDS011;19043;51.012;5.648;2023-07-02T04:38:33;39.15;;;22.90;;
32633;SDS011;19043;51.012;5.648;2023-07-02T04:40:58;35.13;;;20.90;;
32633;SDS011;19043;51.012;5.648;2023-07-02T04:43:30;41.33;;;24.90;;
32633;SDS011;19043;51.012;5.648;2023-07-02T04:45:56;35.60;;;22.27;;
32633;SDS011;19043;51.012;5.648;2023-07-02T04:48:21;32.00;;;22.85;;
32633;SDS011;19043;51.012;5.648;2023-07-02T04:50:46;36.78;;;22.30;;
32633;SDS011;19043;51.012;5.648;2023-07-02T04:53:11;34.77;;;21.67;;
32633;SDS011;19043;51.012;5.648;2023-07-02T04:55:37;38.15;;;23.30;;
32633;SDS011;19043;51.012;5.648;2023-07-02T04:58:02;35.30;;;23.07;;
32633;SDS011;19043;51.012;5.648;2023-07-02T05:00:27;33.97;;;23.65;;
32633;SDS011;19043;51.012;5.648;2023-07-02T05:02:52;39.50;;;24.05;;
32633;SDS011;19043;51.012;5.648;2023-07-02T05:05:18;39.45;;;23.65;;
32633;SDS011;19043;51.012;5.648;2023-07-02T05:07:43;47.38;;;25.58;;
32633;SDS011;19043;51.012;5.648;2023-07-02T05:10:09;33.08;;;23.98;;
32633;SDS011;19043;51.012;5.648;2023-07-02T05:12:34;39.53;;;22.92;;
32633;SDS011;19043;51.012;5.648;2023-07-02T05:14:59;37.37;;;25.20;;
32633;SDS011;19043;51.012;5.648;2023-07-02T05:17:24;40.85;;;24.40;;
32633;SDS011;19043;51.012;5.648;2023-07-02T05:19:50;41.25;;;23.27;;
32633;SDS011;19043;51.012;5.648;2023-07-02T05:22:15;44.38;;;25.33;;
32633;SDS011;19043;51.012;5.648;2023-07-02T05:24:40;51.17;;;23.85;;
32633;SDS011;19043;51.012;5.648;2023-07-02T05:27:06;37.35;;;23.67;;
32633;SDS011;19043;51.012;5.648;2023-07-02T05:29:31;42.83;;;23.80;;
32633;SDS011;19043;51.012;5.648;2023-07-02T05:31:56;50.75;;;25.00;;
32633;SDS011;19043;51.012;5.648;2023-07-02T05:34:22;41.78;;;25.58;;
32633;SDS011;19043;51.012;5.648;2023-07-02T05:36:47;44.53;;;24.80;;
32633;SDS011;19043;51.012;5.648;2023-07-02T05:39:12;45.13;;;26.47;;
32633;SDS011;19043;51.012;5.648;2023-07-02T05:41:37;39.80;;;24.38;;
32633;SDS011;19043;51.012;5.648;2023-07-02T05:44:03;40.92;;;24.98;;
32633;SDS011;19043;51.012;5.648;2023-07-02T05:46:28;53.00;;;26.33;;
32633;SDS011;19043;51.012;5.648;2023-07-02T05:48:53;44.00;;;25.73;;
32633;SDS011;19043;51.012;5.648;2023-07-02T05:51:25;35.78;;;25.35;;
32633;SDS011;19043;51.012;5.648;2023-07-02T05:53:50;40.00;;;25.33;;
32633;SDS011;19043;51.012;5.648;2023-07-02T05:56:16;44.22;;;25.00;;
32633;SDS011;19043;51.012;5.648;2023-07-02T05:58:41;46.80;;;27.08;;
32633;SDS011;19043;51.012;5.648;2023-07-02T06:01:07;43.97;;;25.50;;
32633;SDS011;19043;51.012;5.648;2023-07-02T06:03:32;38.90;;;23.73;;
32633;SDS011;19043;51.012;5.648;2023-07-02T06:05:57;50.70;;;26.25;;
32633;SDS011;19043;51.012;5.648;2023-07-02T06:08:22;38.45;;;25.13;;
32633;SDS011;19043;51.012;5.648;2023-07-02T06:10:48;43.45;;;25.42;;
32633;SDS011;19043;51.012;5.648;2023-07-02T06:13:13;41.88;;;24.92;;
32633;SDS011;19043;51.012;5.648;2023-07-02T06:15:39;46.95;;;26.85;;
32633;SDS011;19043;51.012;5.648;2023-07-02T06:18:04;43.33;;;26.92;;
32633;SDS011;19043;51.012;5.648;2023-07-02T06:20:29;50.63;;;27.10;;
32633;SDS011;19043;51.012;5.648;2023-07-02T06:22:54;46.35;;;26.92;;
32633;SDS011;19043;51.012;5.648;2023-07-02T06:25:20;42.38;;;26.50;;
32633;SDS011;19043;51.012;5.648;2023-07-02T06:27:45;39.87;;;25.97;;
32633;SDS011;19043;51.012;5.648;2023-07-02T06:30:10;45.70;;;26.25;;
32633;SDS011;19043;51.012;5.648;2023-07-02T06:32:36;40.70;;;24.73;;
32633;SDS011;19043;51.012;5.648;2023-07-02T06:35:02;42.28;;;24.52;;
32633;SDS011;19043;51.012;5.648;2023-07-02T06:37:27;45.50;;;25.60;;
32633;SDS011;19043;51.012;5.648;2023-07-02T06:39:52;46.77;;;25.03;;
32633;SDS011;19043;51.012;5.648;2023-07-02T06:42:18;44.53;;;26.25;;
32633;SDS011;19043;51.012;5.648;2023-07-02T06:44:43;41.60;;;26.33;;
32633;SDS011;19043;51.012;5.648;2023-07-02T06:47:08;46.72;;;25.60;;
32633;SDS011;19043;51.012;5.648;2023-07-02T06:49:34;53.22;;;27.65;;
32633;SDS011;19043;51.012;5.648;2023-07-02T06:51:59;36.88;;;25.17;;
32633;SDS011;19043;51.012;5.648;2023-07-02T06:54:25;52.88;;;27.13;;
32633;SDS011;19043;51.012;5.648;2023-07-02T06:56:51;41.40;;;24.85;;
32633;SDS011;19043;51.012;5.648;2023-07-02T06:59:19;40.20;;;25.10;;
32633;SDS011;19043;51.012;5.648;2023-07-02T07:01:45;39.35;;;26.58;;
32633;SDS011;19043;51.012;5.648;2023-07-02T07:04:10;39.60;;;26.20;;
32633;SDS011;19043;51.012;5.648;2023-07-02T07:06:36;42.78;;;25.67;;
32633;SDS011;19043;51.012;5.648;2023-07-02T07:09:02;44.10;;;25.27;;
32633;SDS011;19043;51.012;5.648;2023-07-02T07:11:27;44.58;;;24.85;;
32633;SDS011;19043;51.012;5.648;2023-07-02T07:13:52;47.83;;;26.30;;
32633;SDS011;19043;51.012;5.648;2023-07-02T07:16:18;37.80;;;24.60;;
32633;SDS011;19043;51.012;5.648;2023-07-02T07:18:43;40.00;;;23.25;;
32633;SDS011;19043;51.012;5.648;2023-07-02T07:21:09;42.80;;;26.80;;
32633;SDS011;19043;51.012;5.648;2023-07-02T07:23:34;62.10;;;27.13;;
32633;SDS011;19043;51.012;5.648;2023-07-02T07:25:59;45.30;;;26.97;;
32633;SDS011;19043;51.012;5.648;2023-07-02T07:28:24;42.60;;;25.95;;
32633;SDS011;19043;51.012;5.648;2023-07-02T07:30:50;49.37;;;27.30;;
32633;SDS011;19043;51.012;5.648;2023-07-02T07:33:15;43.83;;;25.87;;
32633;SDS011;19043;51.012;5.648;2023-07-02T07:35:40;47.22;;;25.05;;
32633;SDS011;19043;51.012;5.648;2023-07-02T07:38:05;43.58;;;25.20;;
32633;SDS011;19043;51.012;5.648;2023-07-02T07:40:31;43.63;;;27.57;;
32633;SDS011;19043;51.012;5.648;2023-07-02T07:42:56;41.40;;;25.93;;
32633;SDS011;19043;51.012;5.648;2023-07-02T07:45:21;41.20;;;25.20;;
32633;SDS011;19043;51.012;5.648;2023-07-02T07:47:46;39.97;;;25.33;;
32633;SDS011;19043;51.012;5.648;2023-07-02T07:50:12;38.63;;;26.60;;
32633;SDS011;19043;51.012;5.648;2023-07-02T07:52:37;38.38;;;25.85;;
32633;SDS011;19043;51.012;5.648;2023-07-02T07:55:03;55.65;;;26.50;;
32633;SDS011;19043;51.012;5.648;2023-07-02T07:57:28;51.63;;;26.35;;
32633;SDS011;19043;51.012;5.648;2023-07-02T07:59:53;35.57;;;24.43;;
32633;SDS011;19043;51.012;5.648;2023-07-02T08:02:19;48.13;;;24.70;;
32633;SDS011;19043;51.012;5.648;2023-07-02T08:04:44;41.10;;;23.50;;
32633;SDS011;19043;51.012;5.648;2023-07-02T08:07:09;34.43;;;22.90;;
32633;SDS011;19043;51.012;5.648;2023-07-02T08:09:34;38.73;;;22.23;;
32633;SDS011;19043;51.012;5.648;2023-07-02T08:12:00;47.78;;;23.23;;
32633;SDS011;19043;51.012;5.648;2023-07-02T08:14:25;34.42;;;22.00;;
32633;SDS011;19043;51.012;5.648;2023-07-02T08:16:50;48.33;;;25.33;;
32633;SDS011;19043;51.012;5.648;2023-07-02T08:19:16;37.25;;;23.45;;
32633;SDS011;19043;51.012;5.648;2023-07-02T08:21:41;35.57;;;23.60;;
32633;SDS011;19043;51.012;5.648;2023-07-02T08:24:07;36.35;;;21.60;;
32633;SDS011;19043;51.012;5.648;2023-07-02T08:26:32;38.60;;;22.67;;
32633;SDS011;19043;51.012;5.648;2023-07-02T08:28:57;42.65;;;23.75;;
32633;SDS011;19043;51.012;5.648;2023-07-02T08:31:23;41.70;;;23.23;;
32633;SDS011;19043;51.012;5.648;2023-07-02T08:33:48;44.70;;;25.27;;
32633;SDS011;19043;51.012;5.648;2023-07-02T08:36:13;35.53;;;22.27;;
32633;SDS011;19043;51.012;5.648;2023-07-02T08:38:39;31.60;;;22.17;;
32633;SDS011;19043;51.012;5.648;2023-07-02T08:41:06;40.13;;;23.80;;
32633;SDS011;19043;51.012;5.648;2023-07-02T08:43:32;41.05;;;25.13;;
32633;SDS011;19043;51.012;5.648;2023-07-02T08:45:57;35.17;;;23.55;;
32633;SDS011;19043;51.012;5.648;2023-07-02T08:48:22;34.83;;;21.77;;
32633;SDS011;19043;51.012;5.648;2023-07-02T08:50:49;39.33;;;23.20;;
32633;SDS011;19043;51.012;5.648;2023-07-02T08:53:15;48.40;;;27.30;;
32633;SDS011;19043;51.012;5.648;2023-07-02T08:55:40;38.75;;;23.80;;
32633;SDS011;19043;51.012;5.648;2023-07-02T08:58:05;34.85;;;24.70;;
32633;SDS011;19043;51.012;5.648;2023-07-02T09:00:31;37.80;;;23.45;;
32633;SDS011;19043;51.012;5.648;2023-07-02T09:03:10;41.33;;;21.60;;
32633;SDS011;19043;51.012;5.648;2023-07-02T09:05:35;39.90;;;23.17;;
32633;SDS011;19043;51.012;5.648;2023-07-02T09:08:00;29.98;;;19.63;;
32633;SDS011;19043;51.012;5.648;2023-07-02T09:10:28;33.33;;;20.23;;
32633;SDS011;19043;51.012;5.648;2023-07-02T09:13:06;29.20;;;16.15;;
32633;SDS011;19043;51.012;5.648;2023-07-02T09:15:35;23.73;;;15.80;;
32633;SDS011;19043;51.012;5.648;2023-07-02T09:18:01;26.42;;;16.42;;
32633;SDS011;19043;51.012;5.648;2023-07-02T09:20:33;26.23;;;15.07;;
32633;SDS011;19043;51.012;5.648;2023-07-02T09:22:58;25.10;;;12.85;;
32633;SDS011;19043;51.012;5.648;2023-07-02T09:25:33;31.53;;;13.80;;
32633;SDS011;19043;51.012;5.648;2023-07-02T09:27:58;22.80;;;12.00;;
32633;SDS011;19043;51.012;5.648;2023-07-02T09:30:23;20.33;;;12.60;;
32633;SDS011;19043;51.012;5.648;2023-07-02T09:32:49;21.48;;;12.85;;
32633;SDS011;19043;51.012;5.648;2023-07-02T09:35:14;26.17;;;13.60;;
32633;SDS011;19043;51.012;5.648;2023-07-02T09:37:43;22.05;;;13.60;;
32633;SDS011;19043;51.012;5.648;2023-07-02T09:40:09;21.40;;;12.88;;
32633;SDS011;19043;51.012;5.648;2023-07-02T09:42:35;21.98;;;11.65;;
32633;SDS011;19043;51.012;5.648;2023-07-02T09:45:01;17.65;;;10.90;;
32633;SDS011;19043;51.012;5.648;2023-07-02T09:47:27;18.67;;;11.50;;
32633;SDS011;19043;51.012;5.648;2023-07-02T09:52:22;21.52;;;11.13;;
32633;SDS011;19043;51.012;5.648;2023-07-02T09:54:48;19.58;;;10.30;;
32633;SDS011;19043;51.012;5.648;2023-07-02T09:57:13;19.25;;;10.00;;
32633;SDS011;19043;51.012;5.648;2023-07-02T09:59:39;17.60;;;9.60;;
32633;SDS011;19043;51.012;5.648;2023-07-02T10:02:04;22.83;;;10.38;;
32633;SDS011;19043;51.012;5.648;2023-07-02T10:04:39;17.25;;;10.10;;
32633;SDS011;19043;51.012;5.648;2023-07-02T10:07:04;22.25;;;9.25;;
32633;SDS011;19043;51.012;5.648;2023-07-02T10:09:36;20.02;;;10.15;;
32633;SDS011;19043;51.012;5.648;2023-07-02T10:12:14;25.38;;;10.52;;
32633;SDS011;19043;51.012;5.648;2023-07-02T10:14:40;27.75;;;10.57;;
32633;SDS011;19043;51.012;5.648;2023-07-02T10:17:06;19.92;;;9.38;;
32633;SDS011;19043;51.012;5.648;2023-07-02T10:19:31;31.53;;;10.43;;
32633;SDS011;19043;51.012;5.648;2023-07-02T10:22:03;17.03;;;10.43;;
32633;SDS011;19043;51.012;5.648;2023-07-02T10:24:29;18.92;;;8.93;;
32633;SDS011;19043;51.012;5.648;2023-07-02T10:26:55;17.40;;;9.50;;
32633;SDS011;19043;51.012;5.648;2023-07-02T10:29:22;18.65;;;9.20;;
32633;SDS011;19043;51.012;5.648;2023-07-02T10:31:48;21.55;;;9.65;;
32633;SDS011;19043;51.012;5.648;2023-07-02T10:34:14;14.60;;;9.23;;
32633;SDS011;19043;51.012;5.648;2023-07-02T10:36:39;15.80;;;9.17;;
32633;SDS011;19043;51.012;5.648;2023-07-02T10:39:04;18.88;;;8.43;;
32633;SDS011;19043;51.012;5.648;2023-07-02T10:41:30;14.68;;;9.98;;
32633;SDS011;19043;51.012;5.648;2023-07-02T10:44:10;23.48;;;9.80;;
32633;SDS011;19043;51.012;5.648;2023-07-02T10:46:48;19.85;;;9.90;;
32633;SDS011;19043;51.012;5.648;2023-07-02T10:49:14;21.95;;;9.77;;
32633;SDS011;19043;51.012;5.648;2023-07-02T10:51:39;17.65;;;9.38;;
32633;SDS011;19043;51.012;5.648;2023-07-02T10:54:05;21.88;;;10.10;;
32633;SDS011;19043;51.012;5.648;2023-07-02T10:56:31;14.95;;;9.48;;
32633;SDS011;19043;51.012;5.648;2023-07-02T10:58:57;15.45;;;9.85;;
32633;SDS011;19043;51.012;5.648;2023-07-02T11:01:25;22.88;;;10.30;;
32633;SDS011;19043;51.012;5.648;2023-07-02T11:03:58;13.93;;;9.60;;
32633;SDS011;19043;51.012;5.648;2023-07-02T11:06:24;18.05;;;9.60;;
32633;SDS011;19043;51.012;5.648;2023-07-02T11:08:49;16.65;;;11.10;;
32633;SDS011;19043;51.012;5.648;2023-07-02T11:11:15;20.55;;;10.90;;
32633;SDS011;19043;51.012;5.648;2023-07-02T11:13:46;17.00;;;11.50;;
32633;SDS011;19043;51.012;5.648;2023-07-02T11:18:47;17.95;;;11.57;;
32633;SDS011;19043;51.012;5.648;2023-07-02T11:21:13;23.17;;;11.82;;
32633;SDS011;19043;51.012;5.648;2023-07-02T11:23:38;24.60;;;12.38;;
32633;SDS011;19043;51.012;5.648;2023-07-02T11:26:03;24.60;;;11.60;;
32633;SDS011;19043;51.012;5.648;2023-07-02T11:28:30;21.67;;;11.88;;
32633;SDS011;19043;51.012;5.648;2023-07-02T11:30:56;17.65;;;10.52;;
32633;SDS011;19043;51.012;5.648;2023-07-02T11:33:36;18.88;;;11.38;;
32633;SDS011;19043;51.012;5.648;2023-07-02T11:36:02;15.18;;;10.05;;
32633;SDS011;19043;51.012;5.648;2023-07-02T11:38:28;23.17;;;12.05;;
32633;SDS011;19043;51.012;5.648;2023-07-02T11:40:53;17.73;;;11.37;;
32633;SDS011;19043;51.012;5.648;2023-07-02T11:43:18;17.47;;;11.93;;
32633;SDS011;19043;51.012;5.648;2023-07-02T11:45:43;27.42;;;12.88;;
32633;SDS011;19043;51.012;5.648;2023-07-02T11:48:09;23.27;;;12.88;;
32633;SDS011;19043;51.012;5.648;2023-07-02T11:50:35;28.45;;;12.75;;
32633;SDS011;19043;51.012;5.648;2023-07-02T11:53:00;22.88;;;12.98;;
32633;SDS011;19043;51.012;5.648;2023-07-02T11:55:25;25.97;;;13.40;;
32633;SDS011;19043;51.012;5.648;2023-07-02T11:57:51;21.70;;;13.00;;
32633;SDS011;19043;51.012;5.648;2023-07-02T12:00:16;28.80;;;12.90;;
32633;SDS011;19043;51.012;5.648;2023-07-02T12:02:41;24.98;;;13.02;;
32633;SDS011;19043;51.012;5.648;2023-07-02T12:05:07;20.88;;;13.55;;
32633;SDS011;19043;51.012;5.648;2023-07-02T12:07:33;20.10;;;12.10;;
32633;SDS011;19043;51.012;5.648;2023-07-02T12:09:58;26.92;;;14.35;;
32633;SDS011;19043;51.012;5.648;2023-07-02T12:12:24;20.30;;;13.07;;
32633;SDS011;19043;51.012;5.648;2023-07-02T12:14:49;27.83;;;12.87;;
32633;SDS011;19043;51.012;5.648;2023-07-02T12:17:14;22.60;;;11.83;;
32633;SDS011;19043;51.012;5.648;2023-07-02T12:19:40;21.10;;;12.15;;
32633;SDS011;19043;51.012;5.648;2023-07-02T12:22:06;17.97;;;11.57;;
32633;SDS011;19043;51.012;5.648;2023-07-02T12:24:31;19.67;;;11.70;;
32633;SDS011;19043;51.012;5.648;2023-07-02T12:26:56;19.80;;;12.20;;
32633;SDS011;19043;51.012;5.648;2023-07-02T12:29:22;20.50;;;12.63;;
32633;SDS011;19043;51.012;5.648;2023-07-02T12:31:47;22.20;;;13.23;;
32633;SDS011;19043;51.012;5.648;2023-07-02T12:34:12;18.20;;;12.23;;
32633;SDS011;19043;51.012;5.648;2023-07-02T12:36:37;21.45;;;13.02;;
32633;SDS011;19043;51.012;5.648;2023-07-02T12:39:03;22.87;;;13.03;;
32633;SDS011;19043;51.012;5.648;2023-07-02T12:41:28;22.20;;;12.98;;
32633;SDS011;19043;51.012;5.648;2023-07-02T12:43:54;22.08;;;12.00;;
32633;SDS011;19043;51.012;5.648;2023-07-02T12:46:19;26.50;;;13.75;;
32633;SDS011;19043;51.012;5.648;2023-07-02T12:48:45;21.03;;;12.93;;
32633;SDS011;19043;51.012;5.648;2023-07-02T12:51:10;20.58;;;12.32;;
32633;SDS011;19043;51.012;5.648;2023-07-02T12:53:35;28.30;;;13.15;;
32633;SDS011;19043;51.012;5.648;2023-07-02T12:56:00;23.63;;;13.80;;
32633;SDS011;19043;51.012;5.648;2023-07-02T12:58:26;20.50;;;13.40;;
32633;SDS011;19043;51.012;5.648;2023-07-02T13:00:51;25.57;;;14.37;;
32633;SDS011;19043;51.012;5.648;2023-07-02T13:03:16;22.80;;;12.98;;
32633;SDS011;19043;51.012;5.648;2023-07-02T13:05:42;22.67;;;13.20;;
32633;SDS011;19043;51.012;5.648;2023-07-02T13:08:07;23.77;;;14.00;;
32633;SDS011;19043;51.012;5.648;2023-07-02T13:10:33;19.13;;;12.32;;
32633;SDS011;19043;51.012;5.648;2023-07-02T13:12:58;16.27;;;11.60;;
32633;SDS011;19043;51.012;5.648;2023-07-02T13:15:24;20.17;;;13.18;;
32633;SDS011;19043;51.012;5.648;2023-07-02T13:17:49;26.05;;;11.65;;
32633;SDS011;19043;51.012;5.648;2023-07-02T13:20:14;19.83;;;12.43;;
32633;SDS011;19043;51.012;5.648;2023-07-02T13:22:39;21.42;;;12.50;;
32633;SDS011;19043;51.012;5.648;2023-07-02T13:25:05;18.40;;;12.82;;
32633;SDS011;19043;51.012;5.648;2023-07-02T13:27:30;21.05;;;12.55;;
32633;SDS011;19043;51.012;5.648;2023-07-02T13:29:56;17.30;;;12.10;;
32633;SDS011;19043;51.012;5.648;2023-07-02T13:32:21;19.67;;;12.82;;
32633;SDS011;19043;51.012;5.648;2023-07-02T13:34:46;24.33;;;12.57;;
32633;SDS011;19043;51.012;5.648;2023-07-02T13:37:11;17.23;;;11.50;;
32633;SDS011;19043;51.012;5.648;2023-07-02T13:39:39;17.52;;;11.95;;
32633;SDS011;19043;51.012;5.648;2023-07-02T13:42:04;20.20;;;11.83;;
32633;SDS011;19043;51.012;5.648;2023-07-02T13:44:29;21.85;;;12.68;;
32633;SDS011;19043;51.012;5.648;2023-07-02T13:46:55;23.33;;;12.35;;
32633;SDS011;19043;51.012;5.648;2023-07-02T13:49:20;20.60;;;12.07;;
32633;SDS011;19043;51.012;5.648;2023-07-02T13:51:46;21.80;;;12.93;;
32633;SDS011;19043;51.012;5.648;2023-07-02T13:54:11;16.83;;;11.70;;
32633;SDS011;19043;51.012;5.648;2023-07-02T13:56:37;22.08;;;13.48;;
32633;SDS011;19043;51.012;5.648;2023-07-02T13:59:02;22.90;;;13.13;;
32633;SDS011;19043;51.012;5.648;2023-07-02T14:01:28;28.38;;;12.75;;
32633;SDS011;19043;51.012;5.648;2023-07-02T14:03:53;24.55;;;11.68;;
32633;SDS011;19043;51.012;5.648;2023-07-02T14:06:19;22.98;;;13.07;;
32633;SDS011;19043;51.012;5.648;2023-07-02T14:08:44;22.63;;;11.43;;
32633;SDS011;19043;51.012;5.648;2023-07-02T14:11:10;21.57;;;12.23;;
32633;SDS011;19043;51.012;5.648;2023-07-02T14:13:35;22.10;;;12.00;;
32633;SDS011;19043;51.012;5.648;2023-07-02T14:16:01;30.92;;;13.00;;
32633;SDS011;19043;51.012;5.648;2023-07-02T14:18:26;18.98;;;12.40;;
32633;SDS011;19043;51.012;5.648;2023-07-02T14:20:51;21.55;;;11.52;;
32633;SDS011;19043;51.012;5.648;2023-07-02T14:23:17;20.90;;;12.23;;